createdAt,value
2023-08-04T00:02:47.757Z,58.54
2023-08-04T00:07:50.977Z,58.92
2023-08-04T00:12:54.169Z,59.20
2023-08-04T00:17:57.957Z,58.98
2023-08-04T00:23:01.060Z,59.28
2023-08-04T00:28:04.280Z,59.66
2023-08-04T00:33:07.444Z,59.51
2023-08-04T00:38:10.512Z,59.47
2023-08-04T00:43:13.844Z,58.86
2023-08-04T00:48:17.256Z,58.97
2023-08-04T00:53:20.651Z,58.52
2023-08-04T00:58:24.055Z,58.37
2023-08-04T01:03:28.580Z,58.45
2023-08-04T01:08:35.393Z,58.58
2023-08-04T01:13:41.005Z,58.98
2023-08-04T01:18:44.019Z,59.51
2023-08-04T01:23:47.186Z,59.23
2023-08-04T01:28:51.146Z,59.08
2023-08-04T01:33:54.343Z,59.79
2023-08-04T01:38:58.114Z,59.95
2023-08-04T01:44:01.254Z,59.80
2023-08-04T01:49:06.024Z,60.09
2023-08-04T01:54:09.086Z,61.01
2023-08-04T01:59:12.091Z,61.01
2023-08-04T02:04:15.327Z,61.14
2023-08-04T02:09:18.576Z,61.37
2023-08-04T02:14:22.879Z,61.18
2023-08-04T02:19:28.475Z,60.74
2023-08-04T02:24:31.574Z,61.41
2023-08-04T02:29:34.950Z,60.90
2023-08-04T02:34:38.183Z,60.60
2023-08-04T02:39:41.296Z,60.15
2023-08-04T02:44:44.413Z,60.40
2023-08-04T02:49:47.543Z,60.22
2023-08-04T02:54:54.969Z,59.35
2023-08-04T02:59:59.553Z,58.51
2023-08-04T03:05:03.137Z,57.97
2023-08-04T03:10:07.906Z,57.78
2023-08-04T03:15:11.234Z,57.46
2023-08-04T03:20:14.304Z,56.65
2023-08-04T03:25:17.415Z,56.68
2023-08-04T03:30:20.555Z,55.69
2023-08-04T03:35:23.599Z,54.76
2023-08-04T03:40:28.945Z,54.61
2023-08-04T03:45:32.017Z,54.27
2023-08-04T03:50:35.252Z,53.52
2023-08-04T03:55:38.339Z,53.49
2023-08-04T04:00:41.357Z,51.02
2023-08-04T04:05:44.470Z,48.38
2023-08-04T04:10:49.631Z,46.32
2023-08-04T04:15:52.671Z,43.96
2023-08-04T04:20:55.847Z,43.00
2023-08-04T04:25:58.918Z,39.90
2023-08-04T04:31:05.887Z,39.26
2023-08-04T04:36:09.015Z,38.05
2023-08-04T04:41:12.140Z,36.52
2023-08-04T04:46:15.152Z,36.13
2023-08-04T04:51:18.285Z,35.36
2023-08-04T04:56:21.275Z,35.14
2023-08-04T05:01:24.424Z,34.14
2023-08-04T05:06:30.443Z,33.19
2023-08-04T05:11:33.941Z,32.20
2023-08-04T05:16:37.021Z,32.20
2023-08-04T05:21:40.080Z,32.04
2023-08-04T05:26:43.431Z,31.39
2023-08-04T05:31:46.626Z,31.25
2023-08-04T05:36:50.008Z,30.85
2023-08-04T05:41:53.072Z,31.41
2023-08-04T05:46:57.143Z,30.36
2023-08-04T05:52:00.928Z,30.09
2023-08-04T05:57:04.196Z,30.39
2023-08-04T06:02:07.343Z,29.75
2023-08-04T06:07:10.381Z,30.10
2023-08-04T06:12:13.497Z,29.64
2023-08-04T06:17:16.691Z,29.58
2023-08-04T06:22:19.779Z,30.16
2023-08-04T06:27:23.155Z,29.46
2023-08-04T06:32:26.400Z,28.97
2023-08-04T06:37:29.284Z,28.69
2023-08-04T06:42:32.358Z,28.27
2023-08-04T06:47:35.707Z,29.10
2023-08-04T06:52:39.243Z,28.28
2023-08-04T06:57:42.470Z,27.74
2023-08-04T07:02:50.238Z,27.77
2023-08-04T07:07:56.079Z,27.80
2023-08-04T07:12:59.194Z,27.83
2023-08-04T07:18:02.316Z,27.69
2023-08-04T07:23:05.381Z,27.12
2023-08-04T07:28:08.506Z,25.90
2023-08-04T07:33:11.620Z,27.35
2023-08-04T07:38:14.895Z,27.50
2023-08-04T07:43:18.597Z,28.08
2023-08-04T07:48:22.935Z,27.33
2023-08-04T07:53:26.055Z,27.59
2023-08-04T07:58:29.192Z,27.49
2023-08-04T08:03:36.400Z,27.87
2023-08-04T08:08:39.494Z,28.07
2023-08-04T08:13:42.555Z,27.92
2023-08-04T08:18:45.636Z,28.11
2023-08-04T08:23:48.700Z,28.20
2023-08-04T08:28:51.779Z,28.12
2023-08-04T08:33:54.985Z,28.17
2023-08-04T08:38:58.098Z,27.51
2023-08-04T08:44:01.153Z,27.48
2023-08-04T08:49:05.666Z,27.85
2023-08-04T08:54:09.590Z,26.98
2023-08-04T08:59:12.947Z,27.51
2023-08-04T09:04:17.384Z,27.37
2023-08-04T09:09:20.455Z,27.50
2023-08-04T09:14:23.542Z,26.58
2023-08-04T09:19:34.290Z,26.90
2023-08-04T09:24:37.894Z,27.15
2023-08-04T09:29:57.754Z,26.78
2023-08-04T09:35:07.940Z,27.20
2023-08-04T09:40:21.809Z,26.69
2023-08-04T09:45:25.085Z,26.20
2023-08-04T09:50:28.511Z,25.94
2023-08-04T09:55:32.253Z,26.99
2023-08-04T10:00:35.414Z,26.16
2023-08-04T10:05:38.756Z,25.89
2023-08-04T10:10:43.492Z,26.07
2023-08-04T10:15:47.464Z,25.65
2023-08-04T10:20:52.655Z,25.97
2023-08-04T10:26:00.613Z,25.75
2023-08-04T10:31:12.604Z,26.14
2023-08-04T10:36:16.404Z,25.72
2023-08-04T10:41:19.449Z,25.92
2023-08-04T10:46:26.534Z,25.83
2023-08-04T10:51:29.853Z,26.07
2023-08-04T10:56:32.945Z,25.86
2023-08-04T11:01:36.211Z,25.75
2023-08-04T11:06:39.534Z,26.08
2023-08-04T11:11:42.886Z,25.89
2023-08-04T11:16:48.125Z,25.62
2023-08-04T11:21:52.071Z,25.50
2023-08-04T11:26:57.778Z,25.68
2023-08-04T11:32:00.964Z,25.71
2023-08-04T11:37:04.326Z,25.63
2023-08-04T11:42:14.575Z,25.58
2023-08-04T11:47:19.081Z,25.93
2023-08-04T11:52:24.509Z,25.94
2023-08-04T11:57:27.992Z,25.53
2023-08-04T12:02:31.321Z,25.09
2023-08-04T12:07:34.838Z,25.26
2023-08-04T12:12:43.390Z,24.88
2023-08-04T12:17:46.564Z,25.24
2023-08-04T12:22:49.778Z,25.48
2023-08-04T12:27:52.968Z,25.48
2023-08-04T12:32:56.075Z,25.83
2023-08-04T12:38:01.570Z,26.04
2023-08-04T12:43:04.917Z,26.04
2023-08-04T12:48:07.999Z,26.07
2023-08-04T12:53:15.610Z,25.21
2023-08-04T12:58:19.096Z,25.25
2023-08-04T13:03:22.282Z,24.54
2023-08-04T13:08:25.505Z,24.44
2023-08-04T13:13:28.768Z,24.82
2023-08-04T13:18:31.811Z,24.68
2023-08-04T13:23:35.042Z,24.75
2023-08-04T13:28:38.080Z,25.17
2023-08-04T13:33:41.165Z,24.62
2023-08-04T13:38:44.546Z,25.04
2023-08-04T13:43:48.425Z,24.26
2023-08-04T13:48:51.423Z,24.15
2023-08-04T13:53:54.471Z,24.95
2023-08-04T13:58:57.582Z,25.02
2023-08-04T14:04:01.288Z,25.50
2023-08-04T14:09:04.653Z,25.24
2023-08-04T14:14:07.902Z,25.58
2023-08-04T14:19:11.067Z,25.36
2023-08-04T14:24:14.202Z,25.79
2023-08-04T14:29:18.916Z,24.88
2023-08-04T14:34:22.076Z,24.80
2023-08-04T14:39:25.252Z,25.08
2023-08-04T14:44:28.610Z,25.46
2023-08-04T14:49:31.666Z,25.46
2023-08-04T14:54:34.832Z,26.13
2023-08-04T14:59:38.030Z,25.70
2023-08-04T15:04:42.063Z,26.46
2023-08-04T15:09:45.187Z,26.11
2023-08-04T15:14:49.589Z,27.11
2023-08-04T15:19:52.604Z,28.13
2023-08-04T15:24:55.603Z,28.37
2023-08-04T15:29:58.636Z,27.89
2023-08-04T15:35:02.026Z,28.75
2023-08-04T15:40:07.533Z,28.63
2023-08-04T15:45:13.737Z,28.95
2023-08-04T15:50:16.977Z,29.68
2023-08-04T15:55:20.034Z,29.65
2023-08-04T16:00:23.098Z,29.81
2023-08-04T16:05:28.751Z,29.94
2023-08-04T16:10:32.799Z,29.92
2023-08-04T16:15:35.832Z,30.94
2023-08-04T16:20:39.115Z,31.52
2023-08-04T16:25:42.138Z,32.24
2023-08-04T16:30:45.246Z,32.45
2023-08-04T16:35:49.012Z,33.05
2023-08-04T16:40:57.330Z,33.57
2023-08-04T16:46:00.763Z,34.00
2023-08-04T16:51:04.227Z,33.43
2023-08-04T16:56:07.309Z,34.09
2023-08-04T17:01:13.312Z,34.74
2023-08-04T17:06:19.347Z,35.01
2023-08-04T17:11:23.146Z,35.00
2023-08-04T17:16:26.298Z,35.07
2023-08-04T17:21:31.657Z,35.08
2023-08-04T17:26:34.616Z,35.34
2023-08-04T17:31:37.985Z,35.07
2023-08-04T17:36:42.638Z,35.25
2023-08-04T17:41:45.616Z,35.55
2023-08-04T17:46:48.940Z,35.79
2023-08-04T17:51:55.017Z,36.82
2023-08-04T17:56:59.019Z,36.22
2023-08-04T18:02:02.029Z,36.98
2023-08-04T18:07:05.349Z,37.25
2023-08-04T18:12:08.824Z,36.95
2023-08-04T18:17:11.890Z,37.55
2023-08-04T18:22:17.312Z,37.62
2023-08-04T18:27:20.296Z,37.55
2023-08-04T18:32:23.341Z,38.31
2023-08-04T18:37:26.383Z,37.89
2023-08-04T18:42:29.589Z,38.47
2023-08-04T18:47:32.717Z,38.69
2023-08-04T18:52:36.284Z,39.92
2023-08-04T18:57:39.433Z,39.54
2023-08-04T19:02:42.624Z,39.96
2023-08-04T19:07:45.773Z,40.88
2023-08-04T19:12:48.907Z,41.60
2023-08-04T19:17:52.268Z,41.96
2023-08-04T19:22:55.381Z,42.12
2023-08-04T19:27:58.501Z,42.82
2023-08-04T19:33:01.586Z,43.59
2023-08-04T19:38:04.918Z,44.20
2023-08-04T19:43:08.787Z,44.10
2023-08-04T19:48:12.222Z,45.38
2023-08-04T19:53:15.294Z,45.30
2023-08-04T19:58:18.428Z,46.15
2023-08-04T20:03:21.771Z,46.32
2023-08-04T20:08:24.824Z,46.56
2023-08-04T20:13:28.200Z,46.64
2023-08-04T20:18:32.315Z,47.36
2023-08-04T20:23:35.995Z,47.75
2023-08-04T20:28:39.560Z,48.34
2023-08-04T20:33:42.653Z,47.54
2023-08-04T20:38:45.752Z,48.02
2023-08-04T20:43:48.819Z,47.46
2023-08-04T20:48:51.789Z,47.53
2023-08-04T20:53:54.899Z,47.76
2023-08-04T20:58:57.945Z,47.58
2023-08-04T21:04:00.973Z,47.94
2023-08-04T21:09:04.122Z,48.27
2023-08-04T21:14:07.200Z,48.51
2023-08-04T21:19:10.232Z,49.09
2023-08-04T21:24:13.416Z,49.10
2023-08-04T21:29:16.417Z,49.46
2023-08-04T21:34:22.484Z,49.40
2023-08-04T21:39:26.291Z,49.87
2023-08-04T21:44:29.971Z,49.64
2023-08-04T21:49:33.247Z,50.10
2023-08-04T21:54:45.320Z,50.30
2023-08-04T21:59:48.493Z,49.82
2023-08-04T22:04:51.526Z,50.28
2023-08-04T22:09:54.910Z,50.59
2023-08-04T22:14:59.702Z,50.53
2023-08-04T22:20:02.959Z,50.50
2023-08-04T22:25:06.271Z,50.50
2023-08-04T22:30:09.598Z,50.34
2023-08-04T22:35:12.666Z,50.65
2023-08-04T22:40:15.655Z,51.02
2023-08-04T22:45:18.788Z,51.00
2023-08-04T22:50:22.046Z,50.59
2023-08-04T22:55:25.193Z,51.21
2023-08-04T23:00:28.825Z,51.41
2023-08-04T23:05:35.163Z,51.65
2023-08-04T23:10:38.299Z,52.03
2023-08-04T23:15:41.327Z,52.20
2023-08-04T23:20:51.657Z,52.74
2023-08-04T23:25:54.896Z,52.59
2023-08-04T23:30:58.029Z,52.82
2023-08-04T23:36:01.207Z,53.05
2023-08-04T23:41:04.402Z,53.47
2023-08-04T23:46:07.588Z,53.42
2023-08-04T23:51:10.829Z,53.41
2023-08-04T23:56:13.982Z,53.94
